Accueil
METAR-TAF:

METAR-TAF

Aéroports :

Sabadell, Espagne

latitude: 41-31N, longitude: 002-06E, altitude: 250 m

Observation

Le bulletin a été fait il y a 11 minutes, à 08:30 UTC
Vent 3 kt de sud, variant entre est et sud-ouest
Température 25°C
Humidité 50%
Pression 1020 hPa
Visibilité 10 km ou plus
pas de nuages en-dessous de 1500 mètres et pas de cumulonimbus.

METAR: LELL 230830Z 17003KT 080V230 CAVOK 25/14 Q1020

Heure: 10:41 (08:41 UTC)

Prévision

Le bulletin a été fait il y a 41 minutes, à 08:00 UTC
Prévision valable du 23 à 09 UTC au 24 à 09 UTC
Vent 4 kt de direction variable
Visibilité 10 km ou plus
Quelques nuages à une hauteur de 3000 ft
Evoluant progressivement
du 23 à 10 UTC au 23 à 12 UTC
Vent 10 kt de sud/sud-est
Evoluant progressivement
du 23 à 18 UTC au 23 à 20 UTC
Vent 3 kt de direction variable

TAF: LELL 230800Z 2309/2409 VRB04KT 9999 FEW030 TX28/2313Z TN16/2406Z BECMG 2310/2312 15010KT BECMG 2318/2320 VRB03KT

Observations et prévisions météorologiques de plus de 4000 aéroports (messages METAR et TAF).

Les stations disponibles sont représentées par des disques jaunes et rouges sur la carte.

Passer la souris dessus pour voir le nom de la station.

Cliquer dessus pour voir les observations et prévisions météorologiques.

Pour changer de carte: cliquez sur les boutons verts avec une croix noire pour zoomer, sur le bouton vert avec un tiret pour effectuer un zoom arrière, ou sur les flèches vertes pour les cartes adjacentes.


METAR-TAF: